Decoded Metar for KACK (NANTUCKET in MA, USA) (IATA:ACK) | Meteo·Mobile Aviation Weather
aviador You're here:

KACK Decoded Metar

NANTUCKET in MA, USA
Report Time2020-02-18 22:53:00
UTC Time2020-02-18 22:57:39
Flight Rules lifr LIFR
Wind140° at 20 Gusting to 25 kt
W.Decomp.*RWY 15: 19.9 kt HW 2.1 kt RCW
RWY 12: 16.2 kt HW 11.8 kt RCW
RWY 24: 2.1 kt HW 19.9 kt LCW
Visibility8047 m
Phenomena:Mist
Clouds:Overcast 004 Hf
Expected CloudBase > 400 ft AGL from Temp-Dew spread
Ceiling400 ft
Temp07°C (ISA -8)
Dew Point06°C (93% RH)
AAT-1.1°C
QNH1018 hPa
Density Alt-942 ft
Elevation52 ft
Report Wrong Elevation
Raw Report
METAR KACK 182253Z 14020G25KT 5SM BR OVC004 07/06 A3005 RMK AO2 PK
WND 14027/2159 SLP177 T00720061=

Extra information for KACK:More info

Metar Taf Metar & Taf Last 4 Metars F.Rules Stats Wind Profile Meteogram Temp Stats Airport Information Weather charts Add Link Nearby VenuesMetar ALERT Operation Metar Decoded Social comments

AIRNAV info for KACK